createdAt,value
2023-04-19T00:01:56.709Z,100788.06
2023-04-19T00:07:00.687Z,100765.63
2023-04-19T00:12:18.679Z,100759.84
2023-04-19T00:17:31.346Z,100767.72
2023-04-19T00:22:40.610Z,100764.28
2023-04-19T00:28:04.309Z,100756.38
2023-04-19T00:33:19.046Z,100770.13
2023-04-19T00:38:41.295Z,100757.78
2023-04-19T00:44:11.764Z,100754.19
2023-04-19T00:49:17.830Z,100758.47
2023-04-19T00:54:33.350Z,100757.22
2023-04-19T00:59:44.740Z,100747.50
2023-04-19T01:05:14.322Z,100761.72
2023-04-19T01:10:19.030Z,100773.75
2023-04-19T01:15:25.984Z,100754.88
2023-04-19T01:20:33.404Z,100749.97
2023-04-19T01:31:46.889Z,100720.63
2023-04-19T01:37:17.158Z,100707.63
2023-04-19T01:42:55.278Z,100731.25
2023-04-19T01:48:20.950Z,100721.47
2023-04-19T01:53:48.332Z,100729.72
2023-04-19T01:59:53.755Z,100745.53
2023-04-19T02:10:21.171Z,100732.38
2023-04-19T02:15:42.304Z,100715.47
2023-04-19T02:26:43.040Z,100717.63
2023-04-19T02:31:49.115Z,100688.19
2023-04-19T02:37:06.259Z,100709.00
2023-04-19T02:42:21.799Z,100686.69
2023-04-19T02:47:28.564Z,100696.28
2023-04-19T02:52:32.654Z,100711.25
2023-04-19T02:57:37.485Z,100681.28
2023-04-19T03:02:49.691Z,100673.53
2023-04-19T03:07:50.387Z,100694.50
2023-04-19T03:13:37.437Z,100716.97
2023-04-19T03:19:03.016Z,100709.78
2023-04-19T03:24:22.312Z,100702.44
2023-04-19T03:29:37.058Z,100699.13
2023-04-19T03:34:59.671Z,100717.25
2023-04-19T03:40:40.990Z,100721.34
2023-04-19T03:46:28.531Z,100708.16
2023-04-19T03:51:59.056Z,100703.84
2023-04-19T03:57:20.170Z,100720.16
2023-04-19T04:02:52.481Z,100724.78
2023-04-19T04:08:40.156Z,100698.97
2023-04-19T04:26:09.469Z,100687.31
2023-04-19T04:31:27.746Z,100710.72
2023-04-19T04:36:44.568Z,100684.03
2023-04-19T04:48:26.166Z,100715.94
2023-04-19T04:54:34.044Z,100687.13
2023-04-19T05:05:45.426Z,100698.94
2023-04-19T05:11:06.389Z,100696.84
2023-04-19T05:33:09.662Z,100720.69
2023-04-19T05:38:38.199Z,100704.88
2023-04-19T05:44:11.729Z,100724.59
2023-04-19T05:49:25.999Z,100700.50
2023-04-19T05:54:48.061Z,100706.50
2023-04-19T06:00:23.286Z,100697.13
2023-04-19T06:11:53.449Z,100695.72
2023-04-19T06:17:06.959Z,100697.19
2023-04-19T06:22:14.491Z,100697.88
2023-04-19T06:27:24.404Z,100674.69
2023-04-19T06:32:57.406Z,100694.06
2023-04-19T06:38:03.861Z,100697.69
2023-04-19T06:43:06.002Z,100690.63
2023-04-19T06:48:35.078Z,100714.34
2023-04-19T06:53:42.104Z,100692.28
2023-04-19T06:58:43.461Z,100693.84
2023-04-19T07:03:42.522Z,100701.50
2023-04-19T07:09:05.045Z,100721.00
2023-04-19T07:20:12.063Z,100706.44
2023-04-19T07:26:38.808Z,100728.31
2023-04-19T07:32:19.582Z,100684.75
2023-04-19T07:44:04.328Z,100735.78
2023-04-19T07:49:12.707Z,100743.44
2023-04-19T07:54:36.319Z,100734.44
2023-04-19T08:00:08.864Z,100718.56
2023-04-19T08:05:21.198Z,100723.81
2023-04-19T08:10:25.178Z,100720.31
2023-04-19T08:16:20.494Z,100720.81
2023-04-19T08:21:09.952Z,100706.78
2023-04-19T08:27:10.185Z,100728.59
2023-04-19T08:32:04.028Z,100724.13
2023-04-19T08:37:14.838Z,100721.63
2023-04-19T08:42:28.764Z,100723.16
2023-04-19T08:52:54.834Z,100721.34
2023-04-19T09:04:01.157Z,100718.06
2023-04-19T09:14:40.020Z,100722.78
2023-04-19T09:19:49.193Z,100702.09
2023-04-19T09:30:24.180Z,100720.97
2023-04-19T09:35:57.009Z,100709.84
2023-04-19T09:41:08.475Z,100688.34
2023-04-19T09:46:10.227Z,100677.63
2023-04-19T09:51:15.145Z,100665.97
2023-04-19T09:56:14.227Z,100689.25
2023-04-19T10:01:24.734Z,100699.16
2023-04-19T10:06:45.923Z,100689.44
2023-04-19T10:12:03.158Z,100697.16
2023-04-19T10:17:35.319Z,100673.34
2023-04-19T10:22:39.378Z,100699.19
2023-04-19T10:28:03.786Z,100690.25
2023-04-19T10:33:35.191Z,100688.81
2023-04-19T10:38:46.569Z,100693.44
2023-04-19T10:43:58.664Z,100698.13
2023-04-19T10:49:43.682Z,100700.09
2023-04-19T10:55:00.420Z,100671.75
2023-04-19T11:00:23.429Z,100705.56
2023-04-19T11:05:25.656Z,100682.47
2023-04-19T11:10:37.770Z,100661.00
2023-04-19T11:15:44.417Z,100640.56
2023-04-19T11:21:06.773Z,100694.91
2023-04-19T11:26:17.113Z,100637.88
2023-04-19T11:31:16.667Z,100646.41
2023-04-19T11:36:20.970Z,100657.03
2023-04-19T11:41:28.645Z,100657.34
2023-04-19T11:46:47.366Z,100632.84
2023-04-19T11:51:48.100Z,100610.00
2023-04-19T12:03:07.028Z,100592.19
2023-04-19T12:08:15.798Z,100616.91
2023-04-19T12:13:18.427Z,100607.38
2023-04-19T12:18:35.890Z,100607.72
2023-04-19T12:23:36.836Z,100581.03
2023-04-19T12:28:38.314Z,100572.22
2023-04-19T12:33:45.100Z,100567.81
2023-04-19T12:38:46.944Z,100557.38
2023-04-19T12:43:58.132Z,100559.69
2023-04-19T12:48:56.036Z,100554.91
2023-04-19T12:54:22.861Z,100570.81
2023-04-19T12:59:23.876Z,100562.25
2023-04-19T13:04:26.239Z,100551.53
2023-04-19T13:09:27.400Z,100541.84
2023-04-19T13:14:35.011Z,100541.00
2023-04-19T13:19:34.942Z,100515.84
2023-04-19T13:24:39.414Z,100519.63
2023-04-19T13:29:37.903Z,100535.44
2023-04-19T13:34:36.792Z,100556.16
2023-04-19T13:39:35.605Z,100527.34
2023-04-19T13:44:36.927Z,100539.44
2023-04-19T13:49:35.608Z,100528.84
2023-04-19T13:54:39.241Z,100512.84
2023-04-19T13:59:36.746Z,100494.19
2023-04-19T14:04:51.448Z,100520.38
2023-04-19T14:09:53.140Z,100506.72
2023-04-19T14:14:55.080Z,100507.75
2023-04-19T14:19:54.307Z,100509.97
2023-04-19T14:24:56.487Z,100504.84
2023-04-19T14:29:57.853Z,100522.63
2023-04-19T14:34:56.807Z,100525.41
2023-04-19T14:39:57.953Z,100504.06
2023-04-19T14:44:58.907Z,100498.59
2023-04-19T14:49:59.794Z,100501.38
2023-04-19T14:55:01.785Z,100492.13
2023-04-19T15:00:15.731Z,100496.34
2023-04-19T15:05:27.850Z,100499.13
2023-04-19T15:10:46.965Z,100505.63
2023-04-19T15:15:45.709Z,100498.34
2023-04-19T15:20:51.456Z,100517.81
2023-04-19T15:25:56.179Z,100506.22
2023-04-19T15:31:13.848Z,100491.81
2023-04-19T15:36:13.655Z,100492.31
2023-04-19T15:41:19.851Z,100516.94
2023-04-19T15:46:22.874Z,100507.19
2023-04-19T15:51:24.313Z,100501.88
2023-04-19T15:56:37.216Z,100491.25
2023-04-19T16:01:39.786Z,100490.22
2023-04-19T16:06:39.235Z,100491.25
2023-04-19T16:11:42.326Z,100486.16
2023-04-19T16:16:52.713Z,100489.47
2023-04-19T16:21:57.112Z,100494.34
2023-04-19T16:27:01.569Z,100476.66
2023-04-19T16:32:02.038Z,100480.69
2023-04-19T16:37:14.603Z,100489.47
2023-04-19T16:42:26.728Z,100514.69
2023-04-19T16:47:27.395Z,100495.09
2023-04-19T16:52:52.205Z,100507.91
2023-04-19T16:58:01.868Z,100510.72
2023-04-19T17:03:19.826Z,100519.25
2023-04-19T17:08:22.450Z,100498.84
2023-04-19T17:13:24.158Z,100522.16
2023-04-19T17:18:29.423Z,100512.53
2023-04-19T17:23:30.161Z,100543.03
2023-04-19T17:28:31.071Z,100540.88
2023-04-19T17:33:34.839Z,100524.09
2023-04-19T17:38:33.634Z,100552.03
2023-04-19T17:43:35.369Z,100535.66
2023-04-19T17:48:36.772Z,100536.31
2023-04-19T17:53:39.054Z,100564.41
2023-04-19T17:58:40.255Z,100570.94
2023-04-19T18:03:56.155Z,100567.88
2023-04-19T18:08:55.338Z,100592.31
2023-04-19T18:13:58.815Z,100601.00
2023-04-19T18:18:56.994Z,100591.72
2023-04-19T18:24:02.922Z,100614.78
2023-04-19T18:29:09.499Z,100629.34
2023-04-19T18:34:19.949Z,100650.53
2023-04-19T18:39:18.993Z,100664.44
2023-04-19T18:44:44.254Z,100661.94
2023-04-19T18:49:46.096Z,100661.69
2023-04-19T18:55:01.697Z,100633.50
2023-04-19T19:00:03.398Z,100643.38
2023-04-19T19:05:07.487Z,100653.69
2023-04-19T19:10:19.041Z,100626.16
2023-04-19T19:15:24.416Z,100614.66
2023-04-19T19:20:23.346Z,100626.88
2023-04-19T19:25:24.999Z,100618.59
2023-04-19T19:30:25.907Z,100605.38
2023-04-19T19:35:37.008Z,100622.41
2023-04-19T19:41:07.946Z,100622.38
2023-04-19T19:46:14.075Z,100629.94
2023-04-19T19:51:47.614Z,100640.69
2023-04-19T19:56:35.820Z,100634.34
2023-04-19T20:01:34.416Z,100612.13
2023-04-19T20:07:18.273Z,100652.28
2023-04-19T20:11:57.842Z,100635.97
2023-04-19T20:16:56.903Z,100619.59
2023-04-19T20:21:55.539Z,100613.47
2023-04-19T20:27:03.090Z,100626.66
2023-04-19T20:32:04.662Z,100641.41
2023-04-19T20:37:03.991Z,100651.84
2023-04-19T20:42:06.119Z,100660.09
2023-04-19T20:47:07.478Z,100632.94
2023-04-19T20:52:06.684Z,100622.84
2023-04-19T20:57:04.975Z,100634.91
2023-04-19T21:02:04.156Z,100636.78
2023-04-19T21:07:07.615Z,100635.25
2023-04-19T21:12:05.799Z,100646.53
2023-04-19T21:17:04.162Z,100623.69
2023-04-19T21:22:06.311Z,100639.97
2023-04-19T21:27:08.539Z,100652.16
2023-04-19T21:32:06.405Z,100621.69
2023-04-19T21:37:05.086Z,100653.38
2023-04-19T21:42:03.332Z,100651.13
2023-04-19T21:47:06.252Z,100638.53
2023-04-19T21:52:06.118Z,100640.50
2023-04-19T21:57:07.574Z,100645.25
2023-04-19T22:02:05.850Z,100621.16
2023-04-19T22:07:04.097Z,100608.03
2023-04-19T22:12:02.535Z,100618.94
2023-04-19T22:17:03.599Z,100618.47
2023-04-19T22:22:04.650Z,100631.31
2023-04-19T22:27:08.549Z,100620.38
2023-04-19T22:32:17.353Z,100663.56
2023-04-19T22:37:16.937Z,100629.94
2023-04-19T22:42:19.125Z,100629.56
2023-04-19T22:47:24.124Z,100637.25
2023-04-19T22:52:26.827Z,100639.06
2023-04-19T22:57:28.954Z,100643.38
2023-04-19T23:02:28.727Z,100628.81
2023-04-19T23:07:26.455Z,100641.25
2023-04-19T23:12:24.798Z,100638.13
2023-04-19T23:17:23.513Z,100634.06
2023-04-19T23:22:26.769Z,100601.03
2023-04-19T23:27:27.936Z,100621.19
2023-04-19T23:32:28.195Z,100633.56
2023-04-19T23:37:29.602Z,100617.25
2023-04-19T23:42:33.553Z,100595.63
2023-04-19T23:47:34.416Z,100627.59
2023-04-19T23:52:36.257Z,100622.00
2023-04-19T23:57:38.353Z,100612.72
